createdAt,value
2019-01-14T00:00:03.153Z,6.48
2019-01-14T00:01:03.170Z,6.4
2019-01-14T00:02:03.182Z,6.59
2019-01-14T00:03:03.203Z,6.64
2019-01-14T00:04:03.213Z,6.55
2019-01-14T00:05:03.233Z,6.54
2019-01-14T00:06:09.921Z,6.58
2019-01-14T00:07:03.260Z,6.54
2019-01-14T00:08:03.276Z,6.46
2019-01-14T00:09:03.291Z,6.51
2019-01-14T00:10:03.064Z,6.43
2019-01-14T00:11:03.371Z,6.46
2019-01-14T00:12:03.335Z,6.38
2019-01-14T00:13:03.351Z,6.36
2019-01-14T00:14:03.367Z,6.4
2019-01-14T00:15:03.390Z,6.25
2019-01-14T00:16:03.399Z,6.31
2019-01-14T00:17:03.414Z,6.25
2019-01-14T00:18:03.433Z,6.21
2019-01-14T00:19:18.206Z,6.17
2019-01-14T00:20:03.459Z,6.27
2019-01-14T00:21:03.479Z,6.21
2019-01-14T00:22:03.488Z,6.19
2019-01-14T00:23:03.505Z,6.09
2019-01-14T00:24:03.552Z,6.08
2019-01-14T00:25:03.537Z,6.08
2019-01-14T00:26:18.212Z,6.11
2019-01-14T00:27:18.226Z,6.03
2019-01-14T00:28:03.578Z,6.06
2019-01-14T00:29:03.597Z,6.11
2019-01-14T00:30:03.609Z,6.06
2019-01-14T00:31:03.623Z,6.04
2019-01-14T00:32:03.642Z,6.03
2019-01-14T00:33:03.656Z,5.99
2019-01-14T00:34:03.668Z,5.96
2019-01-14T00:35:03.689Z,5.99
2019-01-14T00:36:03.700Z,5.97
2019-01-14T00:37:03.722Z,5.99
2019-01-14T00:39:03.752Z,5.96
2019-01-14T00:40:03.764Z,6.11
2019-01-14T00:41:18.436Z,6.06
2019-01-14T00:42:03.789Z,6.03
2019-01-14T00:43:18.492Z,6.09
2019-01-14T00:44:03.819Z,6.11
2019-01-14T00:45:03.835Z,5.9
2019-01-14T00:46:03.848Z,5.97
2019-01-14T00:47:03.865Z,5.97
2019-01-14T00:48:03.879Z,5.9
2019-01-14T00:49:03.892Z,5.96
2019-01-14T00:50:03.913Z,6
2019-01-14T00:51:03.924Z,5.91
2019-01-14T00:52:03.941Z,6.09
2019-01-14T00:53:03.960Z,6.01
2019-01-14T00:54:18.632Z,5.96
2019-01-14T00:55:04.046Z,5.99
2019-01-14T00:56:18.660Z,5.99
2019-01-14T00:57:04.025Z,6.03
2019-01-14T00:58:04.030Z,5.96
2019-01-14T00:59:18.708Z,6.03
2019-01-14T01:00:04.061Z,6
2019-01-14T01:01:04.075Z,5.99
2019-01-14T01:02:04.086Z,6.03
2019-01-14T01:03:04.105Z,6.04
2019-01-14T01:06:04.211Z,6.08
2019-01-14T01:07:04.159Z,6.03
2019-01-14T01:08:04.176Z,6.04
2019-01-14T01:10:04.206Z,5.97
2019-01-14T01:12:18.899Z,6.06
2019-01-14T01:13:04.256Z,6.06
2019-01-14T01:14:04.267Z,6
2019-01-14T01:15:18.946Z,6.01
2019-01-14T01:16:04.346Z,5.99
2019-01-14T01:17:04.317Z,6
2019-01-14T01:18:04.324Z,5.99
2019-01-14T01:19:04.340Z,5.97
2019-01-14T01:20:04.362Z,5.96
2019-01-14T01:22:04.385Z,6.01
2019-01-14T01:23:04.398Z,5.82
2019-01-14T01:24:04.468Z,5.93
2019-01-14T01:25:04.486Z,5.79
2019-01-14T01:26:04.452Z,5.76
2019-01-14T01:27:04.462Z,5.79
2019-01-14T01:28:04.477Z,5.81
2019-01-14T01:29:04.488Z,5.83
2019-01-14T01:30:19.169Z,5.79
2019-01-14T01:31:04.519Z,5.81
2019-01-14T01:32:04.533Z,5.83
2019-01-14T01:33:04.552Z,5.79
2019-01-14T01:34:04.567Z,5.74
2019-01-14T01:35:04.581Z,5.82
2019-01-14T01:36:04.692Z,5.89
2019-01-14T01:37:04.607Z,5.83
2019-01-14T01:38:04.621Z,5.82
2019-01-14T01:39:19.307Z,5.85
2019-01-14T01:40:04.653Z,5.83
2019-01-14T01:41:04.770Z,5.78
2019-01-14T01:42:04.680Z,5.82
2019-01-14T01:43:04.706Z,5.83
2019-01-14T01:44:04.720Z,5.76
2019-01-14T01:45:04.724Z,5.76
2019-01-14T01:46:04.751Z,5.64
2019-01-14T01:47:04.758Z,5.54
2019-01-14T01:48:04.771Z,5.53
2019-01-14T01:49:04.786Z,5.46
2019-01-14T01:50:04.902Z,5.56
2019-01-14T01:51:04.816Z,5.46
2019-01-14T01:52:04.852Z,5.58
2019-01-14T01:53:04.843Z,5.51
2019-01-14T01:54:04.859Z,5.54
2019-01-14T01:55:04.751Z,5.49
2019-01-14T01:56:04.890Z,5.51
2019-01-14T01:57:04.905Z,5.54
2019-01-14T01:58:04.916Z,5.39
2019-01-14T01:59:04.933Z,5.53
2019-01-14T02:00:04.965Z,5.49
2019-01-14T02:01:04.960Z,5.42
2019-01-14T02:02:19.639Z,5.45
2019-01-14T02:03:04.991Z,5.48
2019-01-14T02:05:05.025Z,5.36
2019-01-14T02:06:05.037Z,5.54
2019-01-14T02:07:05.049Z,5.48
2019-01-14T02:08:05.064Z,5.48
2019-01-14T02:09:05.081Z,5.56
2019-01-14T02:10:05.099Z,5.51
2019-01-14T02:11:05.108Z,5.49
2019-01-14T02:12:05.124Z,5.58
2019-01-14T02:14:05.149Z,5.57
2019-01-14T02:15:05.268Z,5.46
2019-01-14T02:16:05.180Z,5.57
2019-01-14T02:17:05.197Z,5.51
2019-01-14T02:18:19.872Z,5.51
2019-01-14T02:19:05.238Z,5.54
2019-01-14T02:21:05.252Z,5.53
2019-01-14T02:22:05.266Z,5.54
2019-01-14T02:23:05.281Z,5.51
2019-01-14T02:24:05.297Z,5.51
2019-01-14T02:25:05.313Z,5.54
2019-01-14T02:26:05.337Z,5.65
2019-01-14T02:27:05.442Z,5.63
2019-01-14T02:29:05.368Z,5.54
2019-01-14T02:30:05.397Z,5.57
2019-01-14T02:31:20.059Z,5.49
2019-01-14T02:32:05.415Z,5.39
2019-01-14T02:33:05.525Z,5.54
2019-01-14T02:34:20.105Z,5.45
2019-01-14T02:35:05.454Z,5.57
2019-01-14T02:36:05.470Z,5.4
2019-01-14T02:37:05.487Z,5.39
2019-01-14T02:38:05.499Z,5.39
2019-01-14T02:39:05.514Z,5.33
2019-01-14T02:40:05.529Z,5.31
2019-01-14T02:41:05.544Z,5.31
2019-01-14T02:42:05.555Z,5.24
2019-01-14T02:43:05.680Z,5.28
2019-01-14T02:44:05.595Z,5.3
2019-01-14T02:45:05.600Z,5.36
2019-01-14T02:46:05.617Z,5.27
2019-01-14T02:47:05.633Z,5.31
2019-01-14T02:48:05.642Z,5.3
2019-01-14T02:49:05.665Z,5.24
2019-01-14T02:50:20.338Z,5.3
2019-01-14T02:51:05.696Z,5.31
2019-01-14T02:52:05.709Z,5.25
2019-01-14T02:53:05.745Z,5.36
2019-01-14T02:55:05.746Z,5.39
2019-01-14T02:56:05.817Z,5.39
2019-01-14T02:57:05.781Z,5.51
2019-01-14T02:58:20.453Z,5.58
2019-01-14T02:59:05.804Z,5.51
2019-01-14T03:00:05.830Z,5.54
2019-01-14T03:01:20.493Z,5.58
2019-01-14T03:02:05.846Z,5.39
2019-01-14T03:03:05.863Z,5.49
2019-01-14T03:04:05.874Z,5.45
2019-01-14T03:05:20.550Z,5.48
2019-01-14T03:06:05.907Z,5.48
2019-01-14T03:07:05.918Z,5.4
2019-01-14T03:08:06.087Z,5.51
2019-01-14T03:09:05.958Z,5.57
2019-01-14T03:10:05.963Z,5.54
2019-01-14T03:11:05.992Z,5.53
2019-01-14T03:12:05.987Z,5.49
2019-01-14T03:13:06.003Z,5.54
2019-01-14T03:15:06.036Z,5.64
2019-01-14T03:16:06.045Z,5.54
2019-01-14T03:17:20.733Z,5.51
2019-01-14T03:18:06.073Z,5.65
2019-01-14T03:19:06.087Z,5.58
2019-01-14T03:20:06.214Z,5.61
2019-01-14T03:21:06.121Z,5.54
2019-01-14T03:22:06.135Z,5.51
2019-01-14T03:23:06.147Z,5.56
2019-01-14T03:24:06.170Z,5.54
2019-01-14T03:25:06.192Z,5.61
2019-01-14T03:26:06.192Z,5.64
2019-01-14T03:27:06.209Z,5.65
2019-01-14T03:28:06.227Z,5.63
2019-01-14T03:29:06.237Z,5.61
2019-01-14T03:30:06.260Z,5.64
2019-01-14T03:31:06.268Z,5.64
2019-01-14T03:32:06.287Z,5.63
2019-01-14T03:33:06.428Z,5.63
2019-01-14T03:34:06.314Z,5.65
2019-01-14T03:35:06.340Z,5.63
2019-01-14T03:36:06.342Z,5.64
2019-01-14T03:37:21.008Z,5.6
2019-01-14T03:38:06.373Z,5.54
2019-01-14T03:39:06.378Z,5.57
2019-01-14T03:40:06.151Z,5.61
2019-01-14T03:41:06.403Z,5.56
2019-01-14T03:42:06.421Z,5.61
2019-01-14T03:43:06.436Z,5.67
2019-01-14T03:44:06.547Z,5.61
2019-01-14T03:45:06.470Z,5.64
2019-01-14T03:46:21.142Z,5.6
2019-01-14T03:47:21.156Z,5.58
2019-01-14T03:48:21.168Z,5.61
2019-01-14T03:49:21.182Z,5.58
2019-01-14T03:50:06.293Z,5.53
2019-01-14T03:51:06.584Z,5.48
2019-01-14T03:52:06.564Z,5.51
2019-01-14T03:53:21.250Z,5.43
2019-01-14T03:54:06.631Z,5.49
2019-01-14T03:55:06.615Z,5.45
2019-01-14T03:56:06.620Z,5.39
2019-01-14T03:58:06.656Z,5.38
2019-01-14T03:59:06.665Z,5.38
2019-01-14T04:00:21.349Z,5.39
2019-01-14T04:01:06.696Z,5.45
2019-01-14T04:02:06.706Z,5.38
2019-01-14T04:04:06.738Z,5.35
2019-01-14T04:05:06.756Z,5.42
2019-01-14T04:06:06.770Z,5.39
2019-01-14T04:07:13.463Z,5.43
2019-01-14T04:08:06.807Z,5.36
2019-01-14T04:09:21.466Z,5.38
2019-01-14T04:10:06.820Z,5.42
2019-01-14T04:11:06.837Z,5.39
2019-01-14T04:12:06.847Z,5.4
2019-01-14T04:13:06.866Z,5.42
2019-01-14T04:14:06.630Z,5.42
2019-01-14T04:15:06.901Z,5.36
2019-01-14T04:17:06.919Z,5.31
2019-01-14T04:18:06.955Z,5.27
2019-01-14T04:19:06.957Z,5.28
2019-01-14T04:20:07.011Z,5.24
2019-01-14T04:21:06.983Z,5.33
2019-01-14T04:22:06.998Z,5.24
2019-01-14T04:23:07.022Z,5.3
2019-01-14T04:24:07.037Z,5.31
2019-01-14T04:25:21.696Z,5.3
2019-01-14T04:26:07.057Z,5.33
2019-01-14T04:27:07.072Z,5.27
2019-01-14T04:28:07.093Z,5.25
2019-01-14T04:29:07.092Z,5.2
2019-01-14T04:30:07.158Z,5.2
2019-01-14T04:31:07.115Z,5.18
2019-01-14T04:32:07.133Z,5.18
2019-01-14T04:33:07.170Z,5.12
2019-01-14T04:34:07.176Z,5.07
2019-01-14T04:35:07.180Z,5.04
2019-01-14T04:36:07.197Z,5.03
2019-01-14T04:37:07.203Z,5
2019-01-14T04:38:07.222Z,4.99
2019-01-14T04:39:07.255Z,4.96
2019-01-14T04:40:21.931Z,4.85
2019-01-14T04:41:07.263Z,4.89
2019-01-14T04:42:07.273Z,4.84
2019-01-14T04:43:07.294Z,4.77
2019-01-14T04:44:07.307Z,4.72
2019-01-14T04:45:07.315Z,4.69
2019-01-14T04:46:07.330Z,4.69
2019-01-14T04:47:07.342Z,4.7
2019-01-14T04:49:07.374Z,4.66
2019-01-14T04:50:07.387Z,4.52
2019-01-14T04:51:07.398Z,4.47
2019-01-14T04:52:22.078Z,4.44
2019-01-14T04:53:07.426Z,4.42
2019-01-14T04:54:22.101Z,4.47
2019-01-14T04:55:07.452Z,4.45
2019-01-14T04:56:07.472Z,4.45
2019-01-14T04:57:07.482Z,4.41
2019-01-14T04:59:07.527Z,4.48
2019-01-14T05:00:07.534Z,4.45
2019-01-14T05:01:07.538Z,4.44
2019-01-14T05:02:07.557Z,4.34
2019-01-14T05:03:07.562Z,4.32
2019-01-14T05:04:07.622Z,4.27
2019-01-14T05:05:07.593Z,4.22
2019-01-14T05:06:07.629Z,4.24
2019-01-14T05:07:29.282Z,4.26
2019-01-14T05:08:07.639Z,4.26
2019-01-14T05:09:07.648Z,4.26
2019-01-14T05:10:07.662Z,4.23
2019-01-14T05:11:07.675Z,4.16
2019-01-14T05:12:22.349Z,4.06
2019-01-14T05:13:07.703Z,4.05
2019-01-14T05:14:07.715Z,4.06
2019-01-14T05:15:07.482Z,4.09
2019-01-14T05:16:07.738Z,4.02
2019-01-14T05:17:07.760Z,4.14
2019-01-14T05:18:22.438Z,4.02
2019-01-14T05:19:07.802Z,4.11
2019-01-14T05:20:07.808Z,4
2019-01-14T05:21:07.823Z,4.14
2019-01-14T05:22:07.825Z,4.16
2019-01-14T05:23:07.610Z,4.16
2019-01-14T05:24:22.514Z,4.2
2019-01-14T05:25:07.865Z,4.27
2019-01-14T05:26:07.888Z,4.27
2019-01-14T05:27:07.895Z,4.2
2019-01-14T05:28:22.570Z,4.27
2019-01-14T05:29:07.919Z,4.27
2019-01-14T05:30:07.932Z,4.29
2019-01-14T05:31:07.952Z,4.32
2019-01-14T05:32:07.963Z,4.32
2019-01-14T05:33:07.976Z,4.27
2019-01-14T05:34:07.991Z,4.24
2019-01-14T05:35:08.010Z,4.3
2019-01-14T05:36:08.121Z,4.37
2019-01-14T05:37:08.025Z,4.34
2019-01-14T05:39:08.060Z,4.4
2019-01-14T05:40:22.733Z,4.32
2019-01-14T05:41:08.087Z,4.34
2019-01-14T05:42:08.100Z,4.3
2019-01-14T05:43:08.112Z,4.27
2019-01-14T05:44:22.784Z,4.16
2019-01-14T05:45:08.139Z,4.15
2019-01-14T05:47:08.163Z,4.16
2019-01-14T05:48:08.186Z,4.08
2019-01-14T05:50:08.203Z,4.26
2019-01-14T05:53:08.253Z,4.06
2019-01-14T05:54:08.260Z,4.09
2019-01-14T05:55:08.271Z,4.06
2019-01-14T05:56:08.289Z,4.15
2019-01-14T05:57:08.303Z,4.04
2019-01-14T05:58:08.314Z,4.11
2019-01-14T05:59:08.324Z,4.27
2019-01-14T06:00:23.006Z,4.24
2019-01-14T06:01:08.376Z,4.11
2019-01-14T06:02:08.366Z,4.06
2019-01-14T06:03:08.388Z,4.08
2019-01-14T06:04:08.393Z,4.06
2019-01-14T06:05:08.412Z,4.14
2019-01-14T06:06:08.422Z,4.27
2019-01-14T06:07:08.436Z,4.24
2019-01-14T06:08:08.459Z,4.27
2019-01-14T06:09:08.473Z,4.26
2019-01-14T06:10:08.488Z,4.3
2019-01-14T06:11:08.493Z,4.37
2019-01-14T06:12:08.523Z,4.33
2019-01-14T06:13:08.285Z,4.34
2019-01-14T06:14:08.535Z,4.37
2019-01-14T06:15:23.216Z,4.33
2019-01-14T06:16:23.241Z,4.37
2019-01-14T06:17:08.636Z,4.45
2019-01-14T06:18:08.584Z,4.44
2019-01-14T06:19:08.600Z,4.45
2019-01-14T06:20:08.614Z,4.48
2019-01-14T06:21:08.638Z,4.44
2019-01-14T06:22:08.648Z,4.41
2019-01-14T06:23:08.653Z,4.5
2019-01-14T06:25:23.347Z,4.45
2019-01-14T06:26:08.698Z,4.42
2019-01-14T06:27:08.710Z,4.5
2019-01-14T06:28:08.745Z,4.41
2019-01-14T06:29:08.737Z,4.54
2019-01-14T06:30:08.749Z,4.58
2019-01-14T06:31:08.764Z,4.63
2019-01-14T06:32:08.774Z,4.52
2019-01-14T06:33:08.789Z,4.42
2019-01-14T06:34:08.808Z,4.44
2019-01-14T06:35:08.918Z,4.36
2019-01-14T06:36:08.839Z,4.2
2019-01-14T06:37:08.914Z,3.91
2019-01-14T06:38:08.857Z,3.6
2019-01-14T06:39:08.870Z,3.2
2019-01-14T06:40:08.883Z,2.95
2019-01-14T06:41:08.902Z,2.79
2019-01-14T06:42:12.345Z,2.69
2019-01-14T06:43:23.589Z,2.38
2019-01-14T06:44:23.602Z,2.35
2019-01-14T06:45:08.951Z,2.34
2019-01-14T06:46:23.629Z,2.36
2019-01-14T06:47:23.642Z,2.3
2019-01-14T06:48:08.992Z,2.23
2019-01-14T06:49:09.009Z,2.12
2019-01-14T06:50:09.024Z,2.18
2019-01-14T06:51:09.032Z,2.23
2019-01-14T06:54:09.078Z,2.12
2019-01-14T06:55:09.087Z,2
2019-01-14T06:56:23.764Z,2.14
2019-01-14T06:57:09.112Z,2.14
2019-01-14T06:58:09.125Z,2.02
2019-01-14T06:59:09.141Z,2.12
2019-01-14T07:00:09.153Z,2.17
2019-01-14T07:01:09.168Z,2.07
2019-01-14T07:02:09.181Z,2.02
2019-01-14T07:03:23.851Z,2.02
2019-01-14T07:04:09.206Z,2.07
2019-01-14T07:05:09.217Z,2.12
2019-01-14T07:06:09.239Z,2.16
2019-01-14T07:07:09.242Z,1.98
2019-01-14T07:08:09.255Z,2.06
2019-01-14T07:10:09.283Z,2.1
2019-01-14T07:11:09.332Z,2.14
2019-01-14T07:12:09.306Z,2.23
2019-01-14T07:13:23.982Z,2.24
2019-01-14T07:14:23.993Z,2.23
2019-01-14T07:15:09.343Z,2.23
2019-01-14T07:16:24.018Z,2.16
2019-01-14T07:17:09.366Z,2.25
2019-01-14T07:18:10.797Z,2.24
2019-01-14T07:19:24.064Z,2.24
2019-01-14T07:20:09.408Z,2.2
2019-01-14T07:21:09.423Z,2.24
2019-01-14T07:22:09.436Z,2.23
2019-01-14T07:23:10.759Z,2.2
2019-01-14T07:24:09.467Z,2.27
2019-01-14T07:26:09.486Z,2.35
2019-01-14T07:27:09.502Z,2.31
2019-01-14T07:28:09.508Z,2.34
2019-01-14T07:29:11.239Z,2.39
2019-01-14T07:30:09.538Z,2.41
2019-01-14T07:31:24.209Z,2.34
2019-01-14T07:32:09.561Z,2.43
2019-01-14T07:33:09.579Z,2.43
2019-01-14T07:34:09.640Z,2.38
2019-01-14T07:35:24.263Z,2.45
2019-01-14T07:36:09.613Z,2.48
2019-01-14T07:37:09.628Z,2.45
2019-01-14T07:38:11.735Z,2.49
2019-01-14T07:40:10.223Z,2.49
2019-01-14T07:41:09.688Z,2.59
2019-01-14T07:42:09.689Z,2.46
2019-01-14T07:43:09.705Z,2.53
2019-01-14T07:44:09.716Z,2.54
2019-01-14T07:45:24.391Z,2.6
2019-01-14T07:46:09.737Z,2.43
2019-01-14T07:47:24.415Z,2.52
2019-01-14T07:48:09.767Z,2.53
2019-01-14T07:49:09.784Z,2.57
2019-01-14T07:50:24.454Z,2.54
2019-01-14T07:51:09.807Z,2.72
2019-01-14T07:52:09.817Z,2.71
2019-01-14T07:53:09.829Z,2.75
2019-01-14T07:54:09.846Z,2.75
2019-01-14T07:55:09.856Z,2.84
2019-01-14T07:56:09.872Z,2.77
2019-01-14T07:57:09.894Z,2.81
2019-01-14T07:58:09.903Z,2.89
2019-01-14T07:59:09.906Z,2.92
2019-01-14T08:00:24.590Z,2.95
2019-01-14T08:02:09.954Z,2.95
2019-01-14T08:03:09.958Z,2.9
2019-01-14T08:04:10.026Z,2.99
2019-01-14T08:05:09.993Z,2.9
2019-01-14T08:06:10.006Z,2.96
2019-01-14T08:07:10.018Z,2.99
2019-01-14T08:08:16.560Z,2.97
2019-01-14T08:09:11.364Z,2.96
2019-01-14T08:10:09.825Z,3.18
2019-01-14T08:12:10.076Z,3.14
2019-01-14T08:13:10.092Z,3.1
2019-01-14T08:14:10.110Z,3.18
2019-01-14T08:15:10.118Z,3.13
2019-01-14T08:16:24.796Z,3
2019-01-14T08:17:10.146Z,3
2019-01-14T08:18:10.184Z,3.08
2019-01-14T08:19:10.219Z,3.15
2019-01-14T08:20:10.186Z,3.21
2019-01-14T08:21:10.193Z,3.14
2019-01-14T08:22:24.874Z,3.15
2019-01-14T08:23:10.223Z,3.17
2019-01-14T08:24:09.991Z,3.1
2019-01-14T08:25:10.248Z,3.17
2019-01-14T08:26:10.262Z,3.17
2019-01-14T08:27:10.275Z,3.23
2019-01-14T08:28:10.345Z,3.11
2019-01-14T08:29:10.302Z,3.13
2019-01-14T08:30:10.313Z,3.17
2019-01-14T08:31:10.335Z,3.15
2019-01-14T08:32:10.344Z,3.21
2019-01-14T08:33:10.361Z,3.2
2019-01-14T08:34:10.382Z,3.13
2019-01-14T08:36:25.056Z,3.23
2019-01-14T08:37:10.946Z,3.13
2019-01-14T08:38:25.084Z,3.17
2019-01-14T08:39:10.440Z,3.17
2019-01-14T08:40:10.448Z,3.14
2019-01-14T08:41:10.464Z,3.13
2019-01-14T08:42:10.479Z,3.21
2019-01-14T08:43:10.489Z,3.18
2019-01-14T08:44:10.502Z,3.11
2019-01-14T08:46:10.532Z,3.08
2019-01-14T08:47:10.551Z,3.17
2019-01-14T08:48:10.554Z,3.18
2019-01-14T08:50:10.583Z,3.08
2019-01-14T08:51:10.597Z,3.08
2019-01-14T08:52:10.615Z,3.02
2019-01-14T08:53:10.647Z,3.06
2019-01-14T08:54:25.297Z,2.93
2019-01-14T08:55:10.648Z,3.03
2019-01-14T08:56:10.766Z,3.03
2019-01-14T08:57:10.676Z,3.11
2019-01-14T08:58:10.688Z,3.08
2019-01-14T08:59:10.703Z,3.1
2019-01-14T09:00:10.719Z,3.2
2019-01-14T09:01:10.729Z,3.05
2019-01-14T09:02:10.742Z,3.21
2019-01-14T09:03:10.802Z,3.1
2019-01-14T09:05:10.848Z,3.02
2019-01-14T09:06:10.805Z,3.05
2019-01-14T09:07:10.811Z,3.05
2019-01-14T09:08:10.823Z,3.03
2019-01-14T09:09:10.845Z,3.18
2019-01-14T09:10:25.517Z,3.03
2019-01-14T09:11:10.863Z,3.11
2019-01-14T09:12:10.877Z,3.1
2019-01-14T09:13:10.897Z,3.18
2019-01-14T09:14:10.903Z,3.14
2019-01-14T09:15:10.926Z,3.08
2019-01-14T09:17:10.945Z,3.17
2019-01-14T09:18:10.956Z,3.14
2019-01-14T09:19:11.021Z,3.14
2019-01-14T09:20:10.985Z,3.13
2019-01-14T09:21:10.998Z,3.2
2019-01-14T09:22:11.010Z,3.21
2019-01-14T09:23:11.133Z,3.33
2019-01-14T09:24:11.147Z,3.26
2019-01-14T09:25:25.717Z,3.28
2019-01-14T09:26:11.066Z,3.23
2019-01-14T09:27:11.079Z,3.35
2019-01-14T09:28:11.095Z,3.33
2019-01-14T09:29:11.109Z,3.33
2019-01-14T09:30:11.126Z,3.32
2019-01-14T09:31:11.135Z,3.33
2019-01-14T09:32:10.900Z,3.31
2019-01-14T09:33:11.167Z,3.28
2019-01-14T09:34:25.847Z,3.32
2019-01-14T09:35:11.188Z,3.31
2019-01-14T09:36:11.201Z,3.31
2019-01-14T09:37:25.877Z,3.33
2019-01-14T09:38:11.231Z,3.32
2019-01-14T09:39:11.241Z,3.43
2019-01-14T09:40:11.257Z,3.43
2019-01-14T09:41:11.274Z,3.39
2019-01-14T09:42:11.281Z,3.45
2019-01-14T09:43:11.297Z,3.4
2019-01-14T09:44:11.314Z,3.39
2019-01-14T09:45:11.321Z,3.29
2019-01-14T09:46:11.337Z,3.48
2019-01-14T09:47:11.349Z,3.54
2019-01-14T09:48:11.371Z,3.48
2019-01-14T09:49:11.376Z,3.5
2019-01-14T09:51:11.406Z,3.42
2019-01-14T09:52:11.416Z,3.55
2019-01-14T09:53:11.431Z,3.42
2019-01-14T09:54:11.443Z,3.5
2019-01-14T09:55:11.458Z,3.51
2019-01-14T09:56:11.474Z,3.51
2019-01-14T09:57:26.247Z,3.61
2019-01-14T09:58:11.498Z,3.55
2019-01-14T09:59:11.515Z,3.65
2019-01-14T10:00:11.541Z,3.58
2019-01-14T10:01:11.553Z,3.65
2019-01-14T10:02:11.554Z,3.58
2019-01-14T10:03:12.138Z,3.62
2019-01-14T10:04:26.250Z,3.69
2019-01-14T10:05:11.605Z,3.65
2019-01-14T10:07:11.687Z,3.86
2019-01-14T10:08:11.677Z,3.78
2019-01-14T10:09:11.652Z,3.86
2019-01-14T10:10:11.665Z,3.79
2019-01-14T10:11:11.676Z,3.79
2019-01-14T10:12:11.693Z,3.79
2019-01-14T10:13:26.368Z,3.72
2019-01-14T10:14:11.721Z,3.76
2019-01-14T10:15:11.756Z,3.62
2019-01-14T10:16:11.747Z,3.88
2019-01-14T10:17:11.761Z,3.8
2019-01-14T10:18:11.776Z,3.76
2019-01-14T10:19:11.795Z,3.8
2019-01-14T10:20:11.906Z,3.87
2019-01-14T10:21:11.820Z,3.97
2019-01-14T10:22:11.835Z,4.06
2019-01-14T10:23:11.846Z,4.15
2019-01-14T10:24:11.864Z,4.05
2019-01-14T10:25:26.601Z,4.06
2019-01-14T10:26:26.551Z,4
2019-01-14T10:27:11.903Z,4.05
2019-01-14T10:28:11.916Z,4.06
2019-01-14T10:29:26.594Z,4
2019-01-14T10:30:12.045Z,4.06
2019-01-14T10:31:11.717Z,3.91
2019-01-14T10:32:11.979Z,4.04
2019-01-14T10:33:24.723Z,4
2019-01-14T10:34:12.003Z,4
2019-01-14T10:35:26.685Z,4.04
2019-01-14T10:36:12.042Z,4.05
2019-01-14T10:37:12.058Z,4.08
2019-01-14T10:38:12.061Z,4.08
2019-01-14T10:39:12.075Z,4.02
2019-01-14T10:40:12.093Z,4.02
2019-01-14T10:41:26.764Z,4.09
2019-01-14T10:42:12.125Z,4.04
2019-01-14T10:43:12.134Z,4.09
2019-01-14T10:44:12.144Z,4.05
2019-01-14T10:45:26.822Z,4.05
2019-01-14T10:46:12.174Z,4.06
2019-01-14T10:47:12.193Z,4.06
2019-01-14T10:48:12.202Z,4.02
2019-01-14T10:49:12.215Z,4.04
2019-01-14T10:50:12.228Z,4.12
2019-01-14T10:51:11.992Z,4.23
2019-01-14T10:52:12.260Z,4.12
2019-01-14T10:53:27.034Z,3.98
2019-01-14T10:54:12.286Z,4
2019-01-14T10:55:17.219Z,3.98
2019-01-14T10:56:12.524Z,3.91
2019-01-14T10:57:26.990Z,3.87
2019-01-14T10:58:12.343Z,3.86
2019-01-14T10:59:12.358Z,3.91
2019-01-14T11:00:27.050Z,3.93
2019-01-14T11:01:12.391Z,3.98
2019-01-14T11:02:12.400Z,3.98
2019-01-14T11:03:12.411Z,4.04
2019-01-14T11:05:12.445Z,3.86
2019-01-14T11:06:12.471Z,3.98
2019-01-14T11:07:12.468Z,3.98
2019-01-14T11:09:12.509Z,4.09
2019-01-14T11:10:12.509Z,4.09
2019-01-14T11:12:12.543Z,4.37
2019-01-14T11:13:27.217Z,4.36
2019-01-14T11:14:12.569Z,4.42
2019-01-14T11:15:12.581Z,4.51
2019-01-14T11:16:12.593Z,4.48
2019-01-14T11:17:12.619Z,4.54
2019-01-14T11:18:12.646Z,4.41
2019-01-14T11:19:12.637Z,4.41
2019-01-14T11:20:12.654Z,4.47
2019-01-14T11:21:16.857Z,4.41
2019-01-14T11:22:12.693Z,4.27
2019-01-14T11:23:12.700Z,4.23
2019-01-14T11:25:27.387Z,4.37
2019-01-14T11:26:12.733Z,4.45
2019-01-14T11:27:12.803Z,4.45
2019-01-14T11:28:27.427Z,4.34
2019-01-14T11:29:12.779Z,4.34
2019-01-14T11:30:14.153Z,4.26
2019-01-14T11:31:12.851Z,4.2
2019-01-14T11:32:27.485Z,4.24
2019-01-14T11:33:12.833Z,4.27
2019-01-14T11:34:12.854Z,4.33
2019-01-14T11:35:12.872Z,4.16
2019-01-14T11:36:12.876Z,4.15
2019-01-14T11:38:12.904Z,4.15
2019-01-14T11:39:12.922Z,4.22
2019-01-14T11:42:12.963Z,4.36
2019-01-14T11:43:12.978Z,4.33
2019-01-14T11:44:12.998Z,4.32
2019-01-14T11:45:13.006Z,4.3
2019-01-14T11:46:27.678Z,4.29
2019-01-14T11:47:13.032Z,4.18
2019-01-14T11:48:27.707Z,4.26
2019-01-14T11:49:13.061Z,4.24
2019-01-14T11:50:13.071Z,4.27
2019-01-14T11:51:13.091Z,4.36
2019-01-14T11:52:13.100Z,4.18
2019-01-14T11:53:13.118Z,4.16
2019-01-14T11:55:13.150Z,4.15
2019-01-14T11:57:13.175Z,4.24
2019-01-14T11:59:13.201Z,4.22
2019-01-14T12:00:13.214Z,4.16
2019-01-14T12:01:12.990Z,4.09
2019-01-14T12:02:13.242Z,4.16
2019-01-14T12:03:13.560Z,4.12
2019-01-14T12:04:28.035Z,4.09
2019-01-14T12:05:13.281Z,4.18
2019-01-14T12:06:13.346Z,4.24
2019-01-14T12:07:13.309Z,4.23
2019-01-14T12:08:13.323Z,4.15
2019-01-14T12:09:17.326Z,4.2
2019-01-14T12:10:13.351Z,4.14
2019-01-14T12:11:13.370Z,4.15
2019-01-14T12:12:13.382Z,4.16
2019-01-14T12:13:13.485Z,4.2
2019-01-14T12:14:13.406Z,4.16
2019-01-14T12:15:13.434Z,4.12
2019-01-14T12:16:13.456Z,4.09
2019-01-14T12:17:13.451Z,3.97
2019-01-14T12:18:13.467Z,4.02
2019-01-14T12:19:13.474Z,4
2019-01-14T12:20:28.150Z,3.87
2019-01-14T12:21:13.506Z,3.83
2019-01-14T12:22:13.517Z,3.94
2019-01-14T12:23:13.533Z,4.05
2019-01-14T12:24:13.544Z,4.09
2019-01-14T12:25:13.568Z,4.2
2019-01-14T12:26:13.575Z,4.12
2019-01-14T12:27:13.588Z,4.27
2019-01-14T12:28:13.599Z,4.33
2019-01-14T12:29:13.814Z,4.32
2019-01-14T12:30:13.628Z,4.24
2019-01-14T12:31:13.640Z,4.22
2019-01-14T12:32:13.652Z,4.09
2019-01-14T12:33:13.420Z,4.18
2019-01-14T12:34:13.679Z,4.06
2019-01-14T12:35:28.358Z,4.09
2019-01-14T12:36:13.708Z,4.04
2019-01-14T12:37:13.730Z,4.09
2019-01-14T12:38:13.735Z,4.05
2019-01-14T12:39:19.385Z,4.16
2019-01-14T12:40:13.770Z,4.09
2019-01-14T12:41:13.783Z,4.05
2019-01-14T12:42:13.792Z,4
2019-01-14T12:44:13.819Z,3.97
2019-01-14T12:45:13.834Z,4.04
2019-01-14T12:47:13.864Z,4.05
2019-01-14T12:48:13.873Z,4.05
2019-01-14T12:49:13.892Z,4.11
2019-01-14T12:50:13.900Z,4.16
2019-01-14T12:51:13.917Z,4.12
2019-01-14T12:52:13.684Z,4.08
2019-01-14T12:53:13.941Z,3.97
2019-01-14T12:54:13.964Z,3.84
2019-01-14T12:55:13.967Z,3.94
2019-01-14T12:57:13.996Z,3.88
2019-01-14T12:58:14.009Z,3.76
2019-01-14T13:00:14.037Z,3.91
2019-01-14T13:01:14.051Z,3.65
2019-01-14T13:02:28.726Z,3.42
2019-01-14T13:03:14.179Z,3.18
2019-01-14T13:04:28.751Z,2.92
2019-01-14T13:05:14.102Z,2.6
2019-01-14T13:06:14.130Z,2.34
2019-01-14T13:07:28.792Z,2.27
2019-01-14T13:08:14.145Z,1.95
2019-01-14T13:09:14.156Z,1.88
2019-01-14T13:10:14.166Z,2
2019-01-14T13:11:14.188Z,2
2019-01-14T13:12:14.196Z,2.17
2019-01-14T13:13:14.207Z,2.1
2019-01-14T13:14:14.220Z,2.1
2019-01-14T13:15:14.234Z,1.93
2019-01-14T13:16:14.246Z,1.83
2019-01-14T13:18:14.278Z,1.66
2019-01-14T13:19:14.042Z,1.65
2019-01-14T13:20:14.302Z,1.69
2019-01-14T13:21:14.309Z,1.66
2019-01-14T13:22:14.322Z,1.68
2019-01-14T13:23:32.225Z,1.69
2019-01-14T13:24:14.354Z,1.83
2019-01-14T13:25:14.364Z,1.86
2019-01-14T13:26:14.373Z,1.99
2019-01-14T13:27:14.389Z,2
2019-01-14T13:28:14.400Z,1.91
2019-01-14T13:29:17.682Z,2.06
2019-01-14T13:30:14.424Z,2.16
2019-01-14T13:31:14.437Z,2
2019-01-14T13:32:14.463Z,2
2019-01-14T13:34:14.478Z,1.81
2019-01-14T13:35:14.491Z,1.84
2019-01-14T13:37:14.512Z,1.79
2019-01-14T13:38:14.526Z,1.86
2019-01-14T13:39:36.214Z,1.98
2019-01-14T13:40:14.563Z,1.86
2019-01-14T13:41:14.564Z,1.98
2019-01-14T13:42:14.575Z,1.98
2019-01-14T13:43:14.587Z,1.91
2019-01-14T13:44:14.603Z,1.91
2019-01-14T13:45:14.618Z,1.86
2019-01-14T13:46:14.633Z,1.79
2019-01-14T13:47:14.645Z,1.62
2019-01-14T13:48:14.653Z,1.52
2019-01-14T13:49:14.662Z,1.41
2019-01-14T13:50:14.676Z,1.3
2019-01-14T13:52:14.699Z,1.3
2019-01-14T13:53:14.712Z,1.36
2019-01-14T13:54:14.725Z,1.26
2019-01-14T13:55:29.398Z,1.09
2019-01-14T13:56:14.749Z,1.14
2019-01-14T13:57:14.765Z,1.16
2019-01-14T13:58:14.772Z,1.23
2019-01-14T13:59:14.788Z,1.12
2019-01-14T14:00:14.800Z,1.16
2019-01-14T14:01:14.811Z,1.12
2019-01-14T14:02:14.827Z,1.29
2019-01-14T14:03:14.844Z,1.26
2019-01-14T14:04:14.851Z,1.34
2019-01-14T14:05:14.871Z,1.32
2019-01-14T14:06:14.871Z,1.3
2019-01-14T14:07:14.884Z,1.36
2019-01-14T14:08:14.899Z,1.34
2019-01-14T14:09:14.915Z,1.42
2019-01-14T14:10:29.587Z,1.58
2019-01-14T14:11:14.943Z,1.55
2019-01-14T14:12:14.946Z,1.58
2019-01-14T14:13:14.960Z,1.47
2019-01-14T14:14:14.978Z,1.48
2019-01-14T14:15:14.985Z,1.58
2019-01-14T14:16:14.995Z,1.58
2019-01-14T14:17:15.008Z,1.58